Tyler, TX

3:59 PM CDT on September 20, 2014 (GMT -0500)
Front and Broadway | Change Station
CLOSE
Current Station
Personal Weather Station
Location: Tyler, TX
Elevation: 558 ft
Nearby Weather Stations

Elev 558 ft 32.35 °N, 95.30 °W | Updated 14 minutes ago

Clear
Clear
90.0 °F
Feels Like 90 °F
N
1.7
Wind Variable Wind from NNE

Today
High -- | Low -- °F
--% Chance of Precip.
Yesterday
High -- | Low -- °F
Precip. -- in
7:08 AM 7:20 PM
Waning Crescent, 10% visible
Pressure 29.96 in
Visibility 10.0 miles
Clouds Clear
Heat Index 90 °F
Dew Point 61 °F
Humidity 38%
Rainfall 0.00 in
Snow Depth Not available.
UV 8 out of 12
Pollen 10.80 out of 12
Ozone Good
PM2.5 Moderate
Flu Activity Not available.
METAR KTYR 201953Z AUTO 11006KT 10SM CLR 32/18 A2999 RMK AO2 SLP146 T03220183

More Conditions Fewer Conditions

Pressure 29.96 in
Visibility 10.0 miles
Clouds Clear
Heat Index 90 °F
Dew Point 61 °F
Humidity 38%
Rainfall 0.00 in
Snow Depth Not available.
UV 8 out of 12
Pollen 10.80 out of 12
Ozone Good
PM2.5 Moderate
Flu Activity Not available.
METAR KTYR 201953Z AUTO 11006KT 10SM CLR 32/18 A2999 RMK AO2 SLP146 T03220183

More Conditions Fewer Conditions

10-Day Weather Forecast

Almanac

Astronomy

Sep. 20, 2014 Rise Set
Actual Time 7:08 AM CDT 7:20 PM CDT
Civil Twilight 6:43 AM CDT 7:44 PM CDT
Nautical Twilight 6:15 AM CDT 8:13 PM CDT
Astronomical Twilight 5:46 AM CDT 8:42 PM CDT
Moon 3:57 AM CDT 5:16 PM CDT
Length of Visible Light 13h 01m
Length of Day
12h 12m
Tomorrow will be 1m 58s shorter.
Waning Crescent, 10% of the Moon is Illuminated
Today
Waning Crescent
Sep 24
New
Oct 1
First Quarter
Oct 8
Full
Oct 15
Last Quarter

Today's Extremes

State Highs State Lows

Community

WunderPhotos

Upload Photos

1,754,945 photos uploaded!

WunderBlogs® & News

Nearby

Air Quality

  Air Quality AQ Index Pollutant
Yesterday Good
PM2.5
Yesterday Good
OZONE
Current Moderate
PM2.5
Current Good
OZONE
Saturday Good
OZONE
Saturday Good
PM10
Sunday Moderate
OZONE
Sunday Good
PM10
Monday Moderate
OZONE
Monday Good
PM10
Tuesday Moderate
OZONE
Tuesday Good
PM10

Snow Depth

Station Depth Elevation
No new snow has been reported.

Earthquake Activity

City Distance Mag. Time & Date
No recent earthquake activity has been reported nearby.
Minimum magnitude displayed is 2.5.

Coastal Water Temperatures

Place Temperature
No Stations Reporting

Nearby Weather Stations